Time;durP1;ratioP1;P1;durP2;ratioP2;P2;SDS_P1;SDS_P2;PMS_P1;PMS_P2;Temp;Humidity;BMP_temperature;BMP_pressure;BME280_temperature;BME280_humidity;BME280_pressure;Samples;Min_cycle;Max_cycle;Signal;HPM_P1;HPM_P2
2024/03/30 00:01:24;;;;;;;6.40;3.70;;;9.70;99.90;;;;;;5080742;28;20184;-39
2024/03/30 00:03:51;;;;;;;8.80;4.57;;;9.60;99.90;;;;;;5098105;28;20433;-37
2024/03/30 00:06:17;;;;;;;9.60;4.03;;;9.60;99.90;;;;;;5097223;28;20169;-41
2024/03/30 00:08:43;;;;;;;13.90;4.50;;;9.60;99.90;;;;;;5097408;28;20410;-38
2024/03/30 00:11:08;;;;;;;9.07;4.00;;;9.60;99.90;;;;;;5095871;28;20597;-40
2024/03/30 00:13:34;;;;;;;8.73;4.03;;;9.60;99.90;;;;;;5062328;28;20191;-39
2024/03/30 00:16:09;;;;;;;13.27;3.97;;;9.70;99.90;;;;;;5097499;28;20203;-38
2024/03/30 00:18:53;;;;;;;10.07;4.30;;;9.80;99.90;;;;;;5096242;28;20320;-40
2024/03/30 00:21:21;;;;;;;8.53;3.90;;;9.80;99.90;;;;;;5079611;28;20492;-40
2024/03/30 00:23:47;;;;;;;10.00;3.70;;;9.90;99.90;;;;;;5096361;28;20475;-40
2024/03/30 00:26:13;;;;;;;8.30;4.30;;;9.90;99.90;;;;;;5096540;28;20411;-42
2024/03/30 00:28:38;;;;;;;10.37;4.10;;;10.00;99.90;;;;;;5097126;28;20184;-39
2024/03/30 00:31:04;;;;;;;14.83;5.67;;;10.10;49.60;;;;;;5096631;28;20507;-38
2024/03/30 00:33:30;;;;;;;9.43;4.53;;;10.10;16.50;;;;;;5096652;28;20172;-41
2024/03/30 00:35:56;;;;;;;7.67;3.80;;;10.10;1.00;;;;;;5079131;28;20189;-38
2024/03/30 00:38:22;;;;;;;6.07;3.40;;;10.20;1.00;;;;;;5079368;28;20208;-39
2024/03/30 00:40:48;;;;;;;8.33;3.93;;;10.20;1.00;;;;;;5096913;28;20454;-39
2024/03/30 00:43:13;;;;;;;19.83;4.30;;;10.20;1.00;;;;;;5100313;28;20436;-40
2024/03/30 00:45:40;;;;;;;11.30;3.97;;;10.20;1.00;;;;;;5099884;28;20173;-45
2024/03/30 00:48:06;;;;;;;10.90;4.30;;;10.20;1.00;;;;;;5100807;28;20177;-39
2024/03/30 00:50:32;;;;;;;19.33;4.20;;;10.20;1.00;;;;;;5100799;28;20727;-39
2024/03/30 00:52:58;;;;;;;13.03;4.07;;;10.20;1.00;;;;;;5100169;28;20483;-41
2024/03/30 00:55:23;;;;;;;8.93;5.20;;;10.20;1.00;;;;;;5099108;28;20204;-40
2024/03/30 00:57:49;;;;;;;11.40;3.97;;;10.20;1.00;;;;;;5082499;28;20314;-40
2024/03/30 01:00:15;;;;;;;21.57;4.10;;;10.20;1.00;;;;;;5100404;28;20416;-40
2024/03/30 01:02:41;;;;;;;11.40;3.97;;;10.20;1.00;;;;;;5082211;28;20188;-39
2024/03/30 01:05:07;;;;;;;12.17;4.87;;;10.20;1.00;;;;;;5099801;28;20173;-39
2024/03/30 01:07:33;;;;;;;10.37;4.83;;;10.20;1.00;;;;;;5100997;28;20423;-39
2024/03/30 01:10:00;;;;;;;9.30;3.77;;;10.10;1.00;;;;;;5100388;28;20452;-38
2024/03/30 01:12:26;;;;;;;13.03;4.20;;;10.00;1.00;;;;;;5082975;28;20211;-38
2024/03/30 01:14:52;;;;;;;15.13;4.40;;;9.90;1.00;;;;;;5101162;28;20673;-40
2024/03/30 01:17:18;;;;;;;14.40;4.70;;;9.90;1.00;;;;;;5100213;28;20655;-39
2024/03/30 01:19:45;;;;;;;11.97;4.70;;;9.90;1.00;;;;;;5099840;28;20422;-42
2024/03/30 01:22:11;;;;;;;15.20;4.17;;;9.90;1.00;;;;;;5100313;28;20697;-40
2024/03/30 01:24:37;;;;;;;15.20;4.30;;;9.90;1.00;;;;;;5100369;28;20554;-41
2024/03/30 01:27:25;;;;;;;16.37;5.30;;;10.00;1.00;;;;;;5065384;28;20526;-39
2024/03/30 01:29:52;;;;;;;20.83;7.10;;;10.00;1.00;;;;;;5099349;28;20661;-39
2024/03/30 01:32:18;;;;;;;27.13;6.10;;;10.00;1.00;;;;;;5099419;28;20474;-40
2024/03/30 01:34:44;;;;;;;27.87;6.73;;;10.10;99.90;;;;;;5082612;28;20430;-39
2024/03/30 01:37:10;;;;;;;18.00;5.57;;;10.10;95.30;;;;;;5100409;28;20964;-45
2024/03/30 01:39:36;;;;;;;17.10;5.40;;;10.20;1.00;;;;;;5099563;28;20423;-38
2024/03/30 01:42:01;;;;;;;20.20;5.33;;;10.30;1.00;;;;;;5098566;28;20220;-39
2024/03/30 01:44:27;;;;;;;16.43;4.47;;;10.30;99.90;;;;;;5098758;28;20635;-39
2024/03/30 01:46:53;;;;;;;22.90;7.10;;;10.30;99.90;;;;;;5100005;28;20172;-39
2024/03/30 01:49:19;;;;;;;25.80;6.67;;;10.40;1.00;;;;;;5100130;28;20211;-39
2024/03/30 01:51:46;;;;;;;25.67;6.50;;;10.40;99.90;;;;;;5099747;28;20172;-41
2024/03/30 01:54:13;;;;;;;37.70;6.50;;;10.40;1.00;;;;;;5099254;28;20433;-39
2024/03/30 01:56:38;;;;;;;27.77;7.63;;;10.50;99.90;;;;;;5099192;28;20825;-40
2024/03/30 01:59:04;;;;;;;30.70;7.47;;;10.50;99.90;;;;;;5099835;28;20518;-38
2024/03/30 02:01:30;;;;;;;29.07;8.23;;;10.50;1.00;;;;;;5081897;28;20396;-39
2024/03/30 02:03:58;;;;;;;31.17;7.30;;;10.50;99.90;;;;;;5081303;28;20441;-40
2024/03/30 02:06:24;;;;;;;25.90;7.90;;;10.50;1.00;;;;;;5081062;28;20184;-39
2024/03/30 02:08:50;;;;;;;40.13;6.30;;;10.50;99.90;;;;;;5082396;28;20848;-41
2024/03/30 02:11:18;;;;;;;30.87;9.63;;;10.60;1.00;;;;;;5099461;28;20418;-39
2024/03/30 02:13:45;;;;;;;31.80;8.67;;;10.60;96.50;;;;;;5099491;28;20426;-40
2024/03/30 02:16:10;;;;;;;32.57;8.20;;;10.60;1.00;;;;;;5099201;28;20449;-39
2024/03/30 02:18:36;;;;;;;31.07;8.03;;;10.70;1.00;;;;;;5098677;28;20499;-40
2024/03/30 02:21:01;;;;;;;25.73;8.73;;;10.70;99.90;;;;;;5081861;28;20182;-40
2024/03/30 02:23:27;;;;;;;31.23;9.00;;;10.90;23.00;;;;;;5098724;28;20172;-39
2024/03/30 02:25:57;;;;;;;29.90;7.33;;;11.00;1.00;;;;;;5099542;28;20263;-39
2024/03/30 02:28:22;;;;;;;24.57;7.60;;;11.10;1.00;;;;;;5099139;28;20582;-39
2024/03/30 02:30:48;;;;;;;29.70;7.40;;;11.20;1.00;;;;;;5098784;28;20418;-39
2024/03/30 02:33:14;;;;;;;21.83;6.40;;;11.20;1.00;;;;;;5099723;28;20176;-41
2024/03/30 02:35:39;;;;;;;17.27;5.27;;;11.20;99.90;;;;;;5080616;28;20176;-42
2024/03/30 02:38:05;;;;;;;32.40;6.50;;;11.00;99.90;;;;;;5063058;28;20204;-40
2024/03/30 02:40:30;;;;;;;33.57;6.67;;;10.90;1.00;;;;;;5097516;28;20232;-38
2024/03/30 02:42:56;;;;;;;31.43;8.10;;;10.90;1.00;;;;;;5098227;28;20190;-39
2024/03/30 02:45:22;;;;;;;28.03;8.20;;;11.00;1.00;;;;;;5097927;28;20284;-39
2024/03/30 02:47:47;;;;;;;27.50;7.63;;;11.10;1.00;;;;;;5099157;28;20237;-40
2024/03/30 02:50:13;;;;;;;27.70;6.70;;;11.20;99.90;;;;;;5099009;28;20176;-39
2024/03/30 02:52:38;;;;;;;21.23;5.43;;;11.20;1.00;;;;;;5099032;28;20208;-38
2024/03/30 02:55:04;;;;;;;24.03;5.50;;;11.20;99.90;;;;;;5098831;28;20581;-39
2024/03/30 02:57:30;;;;;;;22.30;6.80;;;11.10;1.00;;;;;;5098817;28;20222;-40
2024/03/30 02:59:56;;;;;;;22.23;6.37;;;10.90;1.00;;;;;;5098371;28;20517;-40
2024/03/30 03:02:21;;;;;;;25.77;5.97;;;10.80;1.00;;;;;;5080353;28;20267;-39
2024/03/30 03:04:48;;;;;;;23.67;6.27;;;10.70;99.90;;;;;;5097331;28;20173;-39
2024/03/30 03:07:15;;;;;;;15.67;5.03;;;10.60;99.90;;;;;;5098019;28;20491;-39
2024/03/30 03:09:41;;;;;;;23.93;5.70;;;10.50;1.00;;;;;;5097300;28;20430;-40
2024/03/30 03:12:06;;;;;;;28.07;7.07;;;10.50;1.00;;;;;;5098211;28;20418;-38
2024/03/30 03:14:32;;;;;;;24.20;6.37;;;10.60;99.90;;;;;;5098015;28;20184;-39
2024/03/30 03:16:58;;;;;;;28.07;7.20;;;10.60;1.00;;;;;;5079347;28;20176;-40
2024/03/30 03:19:23;;;;;;;24.17;6.33;;;10.80;1.00;;;;;;5098473;28;20248;-39
2024/03/30 03:21:49;;;;;;;22.07;5.00;;;10.90;99.90;;;;;;5096284;28;20178;-40
2024/03/30 03:24:15;;;;;;;30.93;10.23;;;11.00;99.90;;;;;;5096743;28;20551;-39
2024/03/30 03:26:41;;;;;;;24.57;5.97;;;11.20;99.90;;;;;;5096420;28;20554;-39
2024/03/30 03:29:06;;;;;;;32.67;9.53;;;11.30;99.90;;;;;;5096812;28;20589;-40
2024/03/30 03:31:32;;;;;;;34.37;6.43;;;11.50;99.90;;;;;;5096392;28;20180;-40
2024/03/30 03:33:57;;;;;;;20.00;5.67;;;11.70;99.90;;;;;;5077145;28;20172;-39
2024/03/30 03:39:45;;;;;;;30.03;6.03;;;12.10;49.80;;;;;;5096925;28;20330;-39
2024/03/30 03:42:11;;;;;;;32.30;8.53;;;12.30;30.40;;;;;;5097954;28;20522;-39
2024/03/30 03:44:36;;;;;;;30.57;6.67;;;12.30;32.00;;;;;;5097690;28;20558;-39
2024/03/30 03:47:02;;;;;;;21.73;5.17;;;12.30;30.50;;;;;;5079718;28;20527;-42
2024/03/30 03:49:28;;;;;;;26.63;6.60;;;12.20;26.20;;;;;;5097123;28;20180;-39
2024/03/30 03:51:55;;;;;;;32.10;7.07;;;12.20;27.60;;;;;;5097633;28;20546;-39
2024/03/30 03:54:21;;;;;;;29.27;6.30;;;12.10;24.10;;;;;;5079992;28;20188;-39
2024/03/30 03:56:46;;;;;;;26.40;5.60;;;12.10;20.00;;;;;;5097433;28;20492;-41
2024/03/30 03:59:13;;;;;;;32.97;6.53;;;12.10;14.10;;;;;;5097295;28;20164;-39
2024/03/30 04:01:38;;;;;;;28.13;5.37;;;12.20;6.00;;;;;;5097308;28;20513;-40
2024/03/30 04:04:04;;;;;;;21.57;6.67;;;12.40;1.00;;;;;;5098040;28;20438;-45
2024/03/30 04:06:30;;;;;;;30.13;6.40;;;12.50;1.00;;;;;;5097535;28;20241;-40
2024/03/30 04:08:56;;;;;;;25.63;6.63;;;12.60;1.00;;;;;;5097767;28;20177;-39
2024/03/30 04:11:22;;;;;;;25.33;5.47;;;12.90;1.00;;;;;;5097753;28;20175;-40
2024/03/30 04:13:48;;;;;;;27.83;5.20;;;13.00;1.00;;;;;;5097175;28;20430;-40
2024/03/30 04:16:13;;;;;;;24.13;5.50;;;13.10;1.10;;;;;;5100577;28;20180;-39
2024/03/30 04:18:39;;;;;;;26.83;7.57;;;13.20;1.00;;;;;;5083899;28;20280;-41
2024/03/30 04:21:05;;;;;;;25.43;5.50;;;13.20;7.50;;;;;;5101941;28;20426;-39
2024/03/30 04:23:31;;;;;;;32.40;6.10;;;13.30;13.20;;;;;;5101718;28;20220;-39
2024/03/30 04:26:17;;;;;;;24.90;5.67;;;13.30;20.00;;;;;;5101250;28;20160;-40
2024/03/30 04:28:42;;;;;;;35.00;5.53;;;13.40;52.10;;;;;;5084405;28;20444;-38
2024/03/30 04:31:10;;;;;;;25.80;5.73;;;13.40;35.70;;;;;;5101066;28;20836;-39
2024/03/30 04:33:35;;;;;;;22.17;5.07;;;13.50;16.40;;;;;;5100582;28;20172;-39
2024/03/30 04:36:03;;;;;;;26.87;4.80;;;13.50;1.00;;;;;;5101485;28;20684;-39
2024/03/30 04:38:29;;;;;;;25.23;5.17;;;13.50;1.00;;;;;;5101768;28;20223;-39
2024/03/30 04:40:59;;;;;;;21.17;5.00;;;13.40;1.00;;;;;;5101610;28;20466;-41
2024/03/30 04:43:25;;;;;;;28.70;5.37;;;13.20;1.00;;;;;;5101496;28;20495;-39
2024/03/30 04:45:51;;;;;;;26.93;5.97;;;12.90;1.00;;;;;;5101135;28;20533;-37
2024/03/30 04:48:17;;;;;;;17.27;5.33;;;12.70;21.30;;;;;;5100558;28;20438;-42
2024/03/30 04:50:43;;;;;;;15.00;5.40;;;12.30;77.20;;;;;;5100726;28;20234;-39
2024/03/30 04:53:08;;;;;;;14.77;4.73;;;12.00;99.90;;;;;;5100547;28;20430;-40
2024/03/30 04:55:35;;;;;;;15.67;5.17;;;11.70;99.90;;;;;;5099914;28;20586;-39
2024/03/30 04:58:00;;;;;;;18.83;5.10;;;11.40;99.90;;;;;;5099159;28;20258;-38
2024/03/30 05:00:26;;;;;;;19.33;4.97;;;11.30;99.90;;;;;;5100425;28;20693;-40
2024/03/30 05:02:52;;;;;;;14.97;4.63;;;11.10;99.90;;;;;;5100253;28;20180;-39
2024/03/30 05:05:17;;;;;;;22.13;5.20;;;11.00;99.90;;;;;;5100952;28;20177;-39
2024/03/30 05:07:43;;;;;;;21.90;4.93;;;11.00;99.90;;;;;;5100160;28;20551;-39
2024/03/30 05:10:09;;;;;;;18.30;5.47;;;10.90;99.90;;;;;;5100142;28;20181;-40
2024/03/30 05:12:34;;;;;;;21.53;4.20;;;10.90;99.90;;;;;;5099689;28;20791;-39
2024/03/30 05:15:00;;;;;;;19.13;3.80;;;10.90;99.90;;;;;;5100560;28;20180;-39
2024/03/30 05:17:26;;;;;;;15.90;3.43;;;11.00;99.90;;;;;;5099945;28;20208;-41
2024/03/30 05:22:36;;;;;;;18.80;5.73;;;11.00;99.90;;;;;;5099893;28;20492;-41
2024/03/30 05:25:01;;;;;;;21.83;7.13;;;11.00;99.90;;;;;;5100337;28;20434;-38
2024/03/30 05:27:27;;;;;;;22.43;5.60;;;10.80;99.90;;;;;;5099248;28;20179;-39
2024/03/30 05:29:55;;;;;;;15.80;4.83;;;10.70;99.90;;;;;;5098761;28;20279;-39
2024/03/30 05:32:20;;;;;;;22.30;5.33;;;10.60;1.00;;;;;;5100422;28;20432;-40
2024/03/30 05:34:46;;;;;;;12.90;5.13;;;10.60;1.00;;;;;;5100186;28;20446;-40
2024/03/30 05:37:11;;;;;;;14.33;6.37;;;10.50;1.00;;;;;;5099945;28;20212;-39
2024/03/30 05:39:37;;;;;;;19.50;5.27;;;10.50;91.90;;;;;;5082350;28;20247;-39
2024/03/30 05:42:03;;;;;;;21.00;5.30;;;10.50;99.90;;;;;;5099276;28;20439;-40
2024/03/30 05:44:29;;;;;;;20.33;6.37;;;10.50;99.90;;;;;;5081420;28;20370;-39
2024/03/30 05:46:55;;;;;;;21.00;5.80;;;10.40;1.00;;;;;;5100516;28;20251;-38
2024/03/30 05:49:20;;;;;;;22.30;5.97;;;10.40;99.90;;;;;;5099273;28;20445;-39
2024/03/30 05:51:46;;;;;;;16.00;5.13;;;10.50;1.00;;;;;;5099485;28;20172;-39
2024/03/30 05:54:12;;;;;;;11.97;4.73;;;10.50;1.00;;;;;;5099270;28;20161;-44
2024/03/30 05:56:38;;;;;;;16.77;4.70;;;10.50;1.00;;;;;;5099717;28;20488;-38
2024/03/30 05:59:03;;;;;;;16.43;5.20;;;10.60;99.90;;;;;;5099382;28;20307;-39
2024/03/30 06:01:30;;;;;;;16.17;4.73;;;10.80;78.70;;;;;;5100172;28;20202;-38
2024/03/30 06:03:55;;;;;;;19.70;5.30;;;10.90;99.90;;;;;;5098681;28;20272;-39
2024/03/30 06:06:21;;;;;;;17.53;4.07;;;11.00;1.00;;;;;;5099370;28;20465;-38
2024/03/30 06:08:47;;;;;;;21.53;5.47;;;11.20;1.00;;;;;;5082048;28;20176;-39
2024/03/30 06:11:13;;;;;;;23.80;4.97;;;11.30;1.00;;;;;;5099238;28;20499;-38
2024/03/30 06:13:38;;;;;;;21.10;6.30;;;11.40;1.00;;;;;;5098344;28;20184;-40
2024/03/30 06:16:05;;;;;;;13.80;5.40;;;11.50;1.00;;;;;;5099326;28;20191;-40
2024/03/30 06:18:31;;;;;;;14.17;4.40;;;11.60;1.00;;;;;;5098934;28;20305;-38
2024/03/30 06:20:57;;;;;;;17.97;5.20;;;11.70;1.00;;;;;;5098995;28;20406;-39
2024/03/30 06:23:22;;;;;;;18.47;6.37;;;11.90;99.90;;;;;;5099191;28;20579;-40
2024/03/30 06:25:48;;;;;;;17.53;4.57;;;12.00;1.00;;;;;;5098466;28;20196;-40
2024/03/30 06:28:14;;;;;;;19.17;5.30;;;12.20;1.00;;;;;;5098620;28;20184;-38
2024/03/30 06:30:40;;;;;;;17.67;5.70;;;12.40;99.90;;;;;;5098104;28;20202;-39
2024/03/30 06:33:06;;;;;;;18.20;5.27;;;12.60;99.90;;;;;;5098455;28;20441;-39
2024/03/30 06:35:37;;;;;;;23.67;6.23;;;12.80;95.80;;;;;;5099167;28;20242;-40
2024/03/30 06:38:03;;;;;;;18.10;5.50;;;12.90;48.30;;;;;;5098039;28;20466;-40
2024/03/30 06:45:57;;;;;;;26.93;5.37;;;13.30;99.90;;;;;;5097571;28;20414;-41
2024/03/30 06:48:22;;;;;;;26.40;5.43;;;13.40;21.10;;;;;;5097345;28;20419;-40
2024/03/30 06:50:48;;;;;;;19.53;4.10;;;13.60;1.00;;;;;;5096629;28;20604;-39
2024/03/30 06:53:13;;;;;;;26.20;4.70;;;13.80;1.00;;;;;;5097305;28;20331;-41
2024/03/30 06:55:39;;;;;;;19.47;5.93;;;14.10;1.00;;;;;;5097038;28;20528;-39
2024/03/30 06:58:06;;;;;;;22.10;4.67;;;14.30;1.00;;;;;;5097730;28;20222;-40
2024/03/30 07:00:31;;;;;;;17.47;3.80;;;14.40;1.00;;;;;;5093771;28;20175;-39
2024/03/30 07:02:57;;;;;;;20.73;4.90;;;14.60;1.00;;;;;;5094699;28;20783;-39
2024/03/30 07:05:22;;;;;;;25.23;7.30;;;14.70;1.00;;;;;;5077040;28;20235;-41
2024/03/30 07:07:48;;;;;;;17.43;3.90;;;14.80;1.00;;;;;;5095678;28;20242;-41
2024/03/30 07:10:14;;;;;;;18.97;4.67;;;14.80;1.00;;;;;;5095297;28;20570;-39
2024/03/30 07:12:39;;;;;;;17.00;6.03;;;14.80;1.00;;;;;;5096442;28;20349;-38
2024/03/30 07:15:06;;;;;;;16.00;4.50;;;14.90;1.00;;;;;;5097597;28;20200;-41
2024/03/30 07:17:31;;;;;;;21.00;3.90;;;14.90;1.00;;;;;;5097639;28;20558;-39
2024/03/30 07:19:57;;;;;;;18.73;4.10;;;14.90;1.00;;;;;;5080123;28;20440;-39
2024/03/30 07:22:23;;;;;;;14.30;4.60;;;15.00;1.00;;;;;;5097886;28;20223;-41
2024/03/30 07:24:48;;;;;;;24.90;5.50;;;15.00;1.00;;;;;;5096205;28;20169;-41
2024/03/30 07:27:14;;;;;;;21.10;5.43;;;15.00;1.00;;;;;;5060983;28;20294;-40
2024/03/30 07:29:40;;;;;;;17.10;4.53;;;14.90;1.00;;;;;;5095635;28;20184;-39
2024/03/30 07:32:05;;;;;;;24.80;5.50;;;14.90;1.00;;;;;;5097045;28;20275;-40
2024/03/30 07:34:31;;;;;;;26.33;5.20;;;14.90;1.00;;;;;;5096954;28;20650;-40
2024/03/30 07:36:57;;;;;;;22.03;4.87;;;14.90;1.00;;;;;;5097449;28;20573;-39
2024/03/30 07:39:22;;;;;;;15.90;4.83;;;14.90;1.00;;;;;;5098182;28;20204;-41
2024/03/30 07:41:48;;;;;;;26.83;6.20;;;14.90;1.00;;;;;;5097024;28;20223;-40
2024/03/30 07:44:16;;;;;;;26.97;6.20;;;14.90;1.00;;;;;;5096787;28;20177;-39
2024/03/30 07:46:41;;;;;;;28.03;6.03;;;14.90;1.00;;;;;;5096441;28;20453;-41
2024/03/30 07:49:07;;;;;;;22.33;4.90;;;14.90;1.00;;;;;;5095853;28;20437;-40
2024/03/30 07:51:32;;;;;;;27.73;6.00;;;14.90;1.00;;;;;;5095462;28;20198;-38
2024/03/30 07:53:58;;;;;;;20.23;6.00;;;14.90;1.00;;;;;;5095979;28;20180;-39
2024/03/30 07:56:24;;;;;;;22.70;5.00;;;14.90;1.00;;;;;;5071166;28;20577;-39
2024/03/30 07:58:50;;;;;;;22.20;5.63;;;14.90;1.00;;;;;;5075241;28;20217;-39
2024/03/30 08:01:15;;;;;;;18.97;4.83;;;14.90;1.00;;;;;;5075681;28;20427;-42
2024/03/30 08:03:41;;;;;;;21.23;5.87;;;14.80;1.00;;;;;;5059101;28;20173;-41
2024/03/30 08:06:09;;;;;;;18.47;5.20;;;14.80;1.00;;;;;;5076440;28;20172;-39
2024/03/30 08:08:35;;;;;;;18.03;7.70;;;14.80;1.00;;;;;;5076192;28;20181;-41
2024/03/30 08:11:01;;;;;;;18.37;7.00;;;14.70;1.00;;;;;;5076670;28;20573;-41
2024/03/30 08:13:26;;;;;;;21.33;6.77;;;14.60;1.00;;;;;;5076771;28;20192;-39
2024/03/30 08:15:52;;;;;;;14.73;5.43;;;14.50;1.00;;;;;;5077172;28;20845;-40
2024/03/30 08:18:19;;;;;;;16.70;6.90;;;14.40;1.00;;;;;;5075917;28;20472;-41
2024/03/30 08:20:45;;;;;;;17.67;6.67;;;14.30;1.00;;;;;;5075231;28;20177;-41
2024/03/30 08:23:10;;;;;;;17.83;6.40;;;14.20;1.00;;;;;;5076092;28;20461;-40
2024/03/30 08:25:36;;;;;;;19.67;8.00;;;14.10;27.10;;;;;;5077011;28;20173;-41
2024/03/30 08:28:02;;;;;;;11.30;5.30;;;14.10;99.90;;;;;;5074632;28;20515;-39
2024/03/30 08:30:28;;;;;;;18.90;6.13;;;14.10;99.90;;;;;;5074749;28;20181;-40
2024/03/30 08:32:54;;;;;;;10.83;2.60;;;14.20;1.00;;;;;;5075080;28;20863;-47
2024/03/30 08:35:20;;;;;;;12.20;3.90;;;14.50;83.50;;;;;;5075165;28;20430;-47
2024/03/30 08:37:46;;;;;;;18.40;5.07;;;15.00;1.00;;;;;;5074826;28;20498;-45
2024/03/30 08:40:11;;;;;;;21.33;7.03;;;15.60;99.90;;;;;;5076817;28;20456;-44
2024/03/30 08:42:37;;;;;;;23.47;8.40;;;15.80;1.00;;;;;;5075802;28;20181;-43
2024/03/30 08:45:03;;;;;;;18.70;9.63;;;15.70;99.90;;;;;;5076159;28;20165;-47
2024/03/30 08:47:29;;;;;;;19.60;8.67;;;15.50;99.90;;;;;;5077164;28;20196;-43
2024/03/30 08:49:54;;;;;;;22.53;9.43;;;15.30;99.90;;;;;;5075785;28;20423;-44
2024/03/30 08:52:20;;;;;;;21.67;7.70;;;15.00;99.90;;;;;;5076770;28;20191;-46
2024/03/30 08:54:45;;;;;;;28.23;7.37;;;14.60;99.90;;;;;;5076072;28;20173;-44
2024/03/30 08:57:11;;;;;;;25.90;7.80;;;14.40;99.90;;;;;;5076340;28;20262;-45
2024/03/30 08:59:37;;;;;;;19.90;7.40;;;14.10;1.00;;;;;;5076568;28;20181;-45
2024/03/30 09:02:03;;;;;;;15.43;6.77;;;13.80;1.00;;;;;;5076931;28;20189;-45
2024/03/30 09:04:29;;;;;;;23.30;6.73;;;13.60;1.00;;;;;;5079984;28;20881;-44
2024/03/30 09:06:55;;;;;;;21.00;7.67;;;13.50;1.00;;;;;;5078614;28;20180;-44
2024/03/30 09:09:21;;;;;;;15.10;6.33;;;13.40;29.80;;;;;;5079381;28;20411;-43
2024/03/30 09:11:46;;;;;;;22.07;6.87;;;13.40;99.90;;;;;;5076929;28;20184;-44
2024/03/30 09:14:12;;;;;;;16.90;6.33;;;13.40;97.30;;;;;;5079934;28;20432;-43
2024/03/30 09:16:37;;;;;;;17.73;6.47;;;13.40;49.50;;;;;;5079886;28;20254;-43
2024/03/30 09:19:03;;;;;;;18.37;7.77;;;13.30;99.90;;;;;;5078387;28;20289;-45
2024/03/30 09:21:29;;;;;;;16.13;6.27;;;13.20;99.90;;;;;;5076417;28;20184;-48
2024/03/30 09:23:55;;;;;;;17.50;6.60;;;13.40;24.50;;;;;;5078350;28;20188;-46
2024/03/30 09:26:20;;;;;;;17.00;6.40;;;13.50;99.90;;;;;;5078525;28;20427;-44
2024/03/30 09:28:46;;;;;;;16.70;7.47;;;13.70;99.90;;;;;;5077614;28;20234;-47
2024/03/30 09:31:12;;;;;;;19.90;7.60;;;13.70;1.00;;;;;;5078161;28;20185;-44
2024/03/30 09:33:37;;;;;;;22.67;7.80;;;13.80;1.00;;;;;;5076754;28;20185;-44
2024/03/30 09:36:08;;;;;;;18.87;6.10;;;13.70;99.90;;;;;;5076955;28;20177;-46
2024/03/30 09:38:34;;;;;;;18.00;5.53;;;13.80;1.00;;;;;;5077323;28;20593;-44
2024/03/30 09:41:03;;;;;;;29.07;7.73;;;13.80;1.00;;;;;;5078083;28;20601;-43
2024/03/30 09:43:29;;;;;;;22.13;6.70;;;13.90;99.90;;;;;;5077885;28;20435;-44
2024/03/30 09:45:57;;;;;;;24.30;6.67;;;13.90;99.90;;;;;;5076973;28;20722;-43
2024/03/30 09:48:24;;;;;;;29.10;6.53;;;14.00;99.90;;;;;;5058620;28;21044;-46
2024/03/30 09:50:52;;;;;;;29.80;7.17;;;14.00;99.90;;;;;;5060334;28;20514;-44
2024/03/30 09:53:18;;;;;;;20.70;5.73;;;14.10;99.90;;;;;;5061594;28;20431;-44
2024/03/30 09:55:44;;;;;;;30.13;6.30;;;14.20;90.40;;;;;;5062157;28;20446;-44
2024/03/30 09:58:12;;;;;;;37.50;7.03;;;14.30;66.00;;;;;;5062562;28;20205;-44
2024/03/30 10:00:38;;;;;;;19.60;6.80;;;14.40;51.50;;;;;;5078337;28;20411;-45
2024/03/30 10:03:04;;;;;;;30.77;7.67;;;14.50;55.50;;;;;;5079681;28;20415;-44
2024/03/30 10:05:37;;;;;;;22.40;8.00;;;14.50;99.90;;;;;;5078734;28;20435;-45
2024/03/30 10:08:03;;;;;;;19.60;8.30;;;14.40;99.90;;;;;;5044941;28;20431;-43
2024/03/30 10:10:32;;;;;;;23.30;8.60;;;14.50;99.90;;;;;;5061133;28;20828;-43
2024/03/30 10:13:00;;;;;;;23.10;8.03;;;14.50;99.90;;;;;;5078752;28;20427;-44
2024/03/30 10:15:43;;;;;;;27.70;9.17;;;14.40;99.90;;;;;;5078383;28;20408;-44
2024/03/30 10:18:08;;;;;;;25.97;8.83;;;14.50;99.90;;;;;;5078492;28;20478;-44
2024/03/30 10:20:35;;;;;;;22.13;8.00;;;14.50;99.90;;;;;;5060824;28;20427;-44
2024/03/30 10:23:00;;;;;;;39.27;10.40;;;14.40;99.90;;;;;;5060950;28;20184;-43
2024/03/30 10:25:26;;;;;;;40.30;10.93;;;14.30;1.00;;;;;;5078337;28;20447;-46
2024/03/30 10:27:52;;;;;;;23.70;8.63;;;14.30;1.00;;;;;;5061124;28;20435;-44
2024/03/30 10:30:18;;;;;;;22.90;9.37;;;14.30;19.80;;;;;;5079077;28;20177;-43
2024/03/30 10:32:44;;;;;;;25.17;8.37;;;14.30;99.90;;;;;;5078665;28;20189;-45
2024/03/30 10:35:13;;;;;;;27.67;8.90;;;14.30;99.90;;;;;;5060578;28;20559;-45
2024/03/30 10:37:38;;;;;;;22.40;8.27;;;14.20;99.90;;;;;;5061728;28;20475;-45
2024/03/30 10:40:09;;;;;;;20.40;10.10;;;14.20;99.90;;;;;;5060587;28;20549;-46
2024/03/30 10:42:35;;;;;;;20.80;10.90;;;14.20;99.90;;;;;;5059006;28;20551;-48
2024/03/30 10:45:03;;;;;;;22.70;13.20;;;14.20;1.00;;;;;;5076226;28;20415;-45
2024/03/30 10:47:29;;;;;;;22.43;12.10;;;14.10;1.00;;;;;;5077106;28;20187;-46
2024/03/30 10:49:56;;;;;;;25.10;11.83;;;14.10;1.00;;;;;;5076275;28;20430;-43
2024/03/30 10:52:22;;;;;;;23.30;10.60;;;14.10;99.90;;;;;;5077323;28;20901;-47
2024/03/30 10:54:48;;;;;;;20.70;10.63;;;14.20;99.90;;;;;;5058362;28;20515;-43
2024/03/30 10:57:13;;;;;;;26.77;11.90;;;14.20;99.90;;;;;;5075609;28;20169;-44
2024/03/30 10:59:45;;;;;;;21.30;11.63;;;14.20;92.10;;;;;;5059950;28;20563;-45
2024/03/30 11:02:19;;;;;;;19.73;11.40;;;14.20;99.90;;;;;;5060868;28;20203;-46
2024/03/30 11:04:44;;;;;;;21.07;10.77;;;14.20;99.90;;;;;;5076909;28;20511;-44
2024/03/30 11:07:13;;;;;;;23.90;10.90;;;14.30;99.90;;;;;;5041615;28;20533;-44
2024/03/30 11:09:41;;;;;;;22.53;11.27;;;14.40;99.90;;;;;;5074718;28;20165;-45
2024/03/30 11:12:11;;;;;;;22.30;10.60;;;14.40;99.90;;;;;;5058323;28;20425;-44
2024/03/30 11:14:38;;;;;;;26.77;14.57;;;14.40;1.00;;;;;;5076189;28;20748;-44
2024/03/30 11:17:32;;;;;;;23.47;14.30;;;14.40;99.90;;;;;;5057322;28;20431;-45
2024/03/30 11:20:22;;;;;;;22.10;12.97;;;14.40;99.90;;;;;;5075442;28;20451;-45
2024/03/30 11:23:20;;;;;;;23.00;12.00;;;14.40;1.00;;;;;;5075403;28;20453;-45
2024/03/30 11:25:49;;;;;;;21.77;11.33;;;14.50;1.00;;;;;;5075982;28;20424;-45
2024/03/30 11:28:30;;;;;;;24.20;12.77;;;14.60;1.00;;;;;;5059014;28;20512;-44
2024/03/30 11:31:31;;;;;;;30.17;12.83;;;14.60;99.90;;;;;;5057850;28;20537;-44
2024/03/30 11:34:04;;;;;;;36.90;20.13;;;14.60;99.90;;;;;;5066723;28;20469;-43
2024/03/30 11:36:49;;;;;;;41.67;25.60;;;14.50;99.90;;;;;;5058454;28;20518;-44
2024/03/30 11:39:29;;;;;;;24.13;12.03;;;14.60;1.00;;;;;;5058363;28;20480;-43
2024/03/30 11:42:17;;;;;;;28.87;14.30;;;14.60;99.90;;;;;;5057393;28;20459;-43
2024/03/30 11:44:43;;;;;;;25.50;13.70;;;14.70;1.00;;;;;;5076346;28;20431;-44
2024/03/30 11:47:09;;;;;;;27.63;12.53;;;14.70;1.00;;;;;;5041844;28;20437;-44
2024/03/30 11:49:35;;;;;;;28.23;12.40;;;14.90;1.00;;;;;;5058826;28;20849;-43
2024/03/30 11:52:01;;;;;;;19.57;11.73;;;15.00;1.00;;;;;;5076273;28;20705;-43
2024/03/30 11:54:27;;;;;;;21.23;12.30;;;15.10;99.90;;;;;;5056267;28;20407;-44
2024/03/30 11:57:10;;;;;;;28.30;13.90;;;15.20;99.90;;;;;;5074799;28;20196;-45
2024/03/30 11:59:37;;;;;;;25.13;13.40;;;15.30;99.90;;;;;;5075459;28;20440;-43
2024/03/30 12:02:09;;;;;;;24.73;13.43;;;15.40;99.90;;;;;;5057695;28;20432;-45
2024/03/30 12:04:42;;;;;;;25.67;11.47;;;15.50;1.00;;;;;;5057736;28;20714;-45
2024/03/30 12:07:09;;;;;;;20.53;11.43;;;15.60;99.90;;;;;;5056478;28;20837;-43
2024/03/30 12:09:35;;;;;;;20.73;10.50;;;15.60;1.00;;;;;;5074491;28;20762;-43
2024/03/30 12:12:19;;;;;;;24.90;10.50;;;15.70;1.00;;;;;;5058060;28;20844;-44
2024/03/30 12:14:50;;;;;;;22.53;10.93;;;15.80;1.00;;;;;;5074696;28;20512;-47
2024/03/30 12:17:16;;;;;;;27.23;11.53;;;15.90;99.90;;;;;;5075454;28;20415;-44
2024/03/30 12:19:42;;;;;;;23.57;10.03;;;15.90;99.90;;;;;;5058648;28;20431;-44
2024/03/30 12:22:08;;;;;;;29.03;11.17;;;15.90;99.90;;;;;;5057388;28;20454;-45
2024/03/30 12:24:34;;;;;;;21.83;10.60;;;15.90;99.90;;;;;;5074038;28;20414;-50
2024/03/30 12:27:00;;;;;;;22.57;8.70;;;16.00;99.90;;;;;;5056132;28;20716;-43
2024/03/30 12:29:25;;;;;;;21.97;7.90;;;16.10;99.90;;;;;;5074631;28;20427;-43
2024/03/30 12:31:51;;;;;;;23.50;9.57;;;16.00;99.90;;;;;;5074009;28;20239;-46
2024/03/30 12:34:17;;;;;;;24.80;8.87;;;16.00;99.90;;;;;;5074346;28;20567;-45
2024/03/30 12:36:43;;;;;;;19.67;7.00;;;16.10;99.90;;;;;;5057667;28;20199;-44
2024/03/30 12:39:09;;;;;;;21.30;7.73;;;16.10;99.90;;;;;;5061608;28;20317;-45
2024/03/30 12:41:35;;;;;;;26.70;8.03;;;16.20;99.90;;;;;;5045349;28;20475;-43
2024/03/30 12:44:06;;;;;;;24.60;7.40;;;16.30;99.90;;;;;;5078568;28;20430;-43
2024/03/30 12:46:32;;;;;;;17.73;7.20;;;16.40;99.90;;;;;;5079536;28;20169;-44
2024/03/30 12:49:02;;;;;;;31.23;7.03;;;16.50;77.00;;;;;;5079652;28;20530;-45
2024/03/30 12:51:29;;;;;;;20.53;7.53;;;16.60;53.40;;;;;;5079378;28;20404;-48